Cumming, IA (50061)

5:15 AM CDT on July 24, 2016 (GMT -0500)
The Legacy | | Change Station

Elev 942 ft 41.49 °N, 93.68 °W | Updated 20 seconds ago

Mostly Cloudy
Mostly Cloudy
78.8 °F
Feels Like 79 °F
N
0.0
Wind Variable Wind from NNW
Gusts 0.0 mph

Today
High -- | Low -- °F
--% Chance of Precip.
Yesterday
High -- | Low -- °F
Precip. -- in
Pressure 29.79 in
Visibility 10.0 miles
Clouds Mostly Cloudy 10000 ft
Heat Index 79 °F
Dew Point 46 °F
Humidity 31%
Rainfall 0.00 in
Snow Depth Not available.
6:02 AM 8:39 PM
Waning Gibbous, 77% visible
METAR KDSM 240954Z 22006KT 10SM BKN100 27/24 A2982 RMK AO2 SLP087 T02720239
Pressure 29.79 in
Visibility 10.0 miles
Clouds Mostly Cloudy 10000 ft
Heat Index 79 °F
Dew Point 46 °F
Humidity 31%
Rainfall 0.00 in
Snow Depth Not available.
6:02 AM 8:39 PM
Waning Gibbous, 77% visible
METAR KDSM 240954Z 22006KT 10SM BKN100 27/24 A2982 RMK AO2 SLP087 T02720239

10-Day Weather Forecast

Almanac

Astronomy

Jul. 24, 2016 Rise Set
Actual Time
Civil Twilight
Nautical Twilight
Astronomical Twilight
Moon
Length of Visible Light
Length of Day
Tomorrow will be .
, % of the Moon is Illuminated

Today's Extremes

State Highs State Lows

Community

WunderPhotos

Upload Photos

1,927,040 photos uploaded!

WunderBlog® & News

Nearby

Air Quality

  Air Quality AQ Index Pollutant
Not available.

Snow Depth

Station Depth Elevation

Earthquake Activity

City Distance Mag. Time & Date
Minimum magnitude displayed is 2.5.

Coastal Water Temperatures

Place Temperature

Stations

Nearby Weather Stations

Station Location Temp. Windchill Dew Point Humidity Wind Precip. Elev Updated Type
                   

Watches & Warnings

There are currently no watches in effect.